Observations for Trim Market St
| Time | AQI | Temp °C | Hum % | Pres Pa | CO μg/m³ | H₂S μg/m³ | NO μg/m³ | NO₂ μg/m³ | O₃ μg/m³ | SO₂ μg/m³ | PM1 μg/m³ | PM2.5 μg/m³ | PM10 μg/m³ |
|---|---|---|---|---|---|---|---|---|---|---|---|---|---|
| Friday 21 August 2026 | |||||||||||||
| 17:40 | 3 | 22.9 | 50 | 63,155 | 0.35 | 0 | 1.2 | 14.47 | 58.28 | 0 | 0 | 1.95 | 2.15 |
| 17:39 | 3 | 22.9 | 50 | 63,143 | 0.72 | 0 | 1.2 | 19.4 | 59.98 | 0 | 0 | 1.95 | 2.15 |
| 17:38 | 3 | 22.9 | 50 | 63,127 | 0.27 | 0 | 1.2 | 16.47 | 57.05 | 0 | 0 | 2.47 | 2.71 |
| 17:37 | 3 | 22.9 | 50 | 62,942 | 0.19 | 0 | 1.21 | 13.83 | 57.9 | 0 | 0 | 1.95 | 2.14 |
| 17:35 | 3 | 22.9 | 50 | 62,369 | 0.22 | 0 | 1.54 | 16.42 | 58.39 | 0 | 0 | 1.92 | 2.11 |
| 17:34 | 3 | 22.9 | 51 | 61,952 | 0.32 | 0 | 1.61 | 13.46 | 55.33 | 0 | 0 | 1.91 | 2.1 |
| 17:30 | 3 | 22.5 | 52 | 59,480 | 0.39 | 0 | 1.55 | 22.38 | 53.29 | 0 | 0 | 1.84 | 2.02 |
| 17:29 | 3 | 22.5 | 53 | 58,586 | 0.64 | 0 | 1.83 | 32.81 | 55.68 | 0 | 0 | 1.81 | 2.44 |
| 17:22 | 3 | 21.6 | 56 | 57,314 | 0.4 | 2.03 | 3.11 | 69.45 | 24.77 | 0 | 0 | 2.21 | 2.54 |
| 17:21 | 3 | 21.5 | 56 | 57,490 | 0.52 | 5.71 | 2.53 | 86.24 | 14.66 | 0 | 0 | 2.71 | 3.26 |
| 17:14 | 3 | 21 | 56 | 57,785 | 0.46 | 7.05 | 1.28 | 59.9 | 41.67 | 0 | 0 | 2.18 | 2.57 |
| 17:13 | 3 | 21 | 56 | 57,783 | 0.24 | 4.92 | 1.27 | 44.78 | 64.3 | 0 | 0 | 3.19 | 4.7 |
| 17:12 | 3 | 20.9 | 57 | 57,780 | 0.01 | 3.31 | 1.19 | 38.91 | 62.62 | 0 | 0 | 1.67 | 3.29 |
| 17:11 | 3 | 20.8 | 57 | 57,778 | 0 | 4.15 | 1.21 | 33.52 | 61.81 | 0 | 0 | 2.67 | 4 |
| 17:10 | 3 | 20.7 | 57 | 57,776 | 0 | 9 | 1.26 | 44.96 | 65.58 | 0 | 0 | 2.16 | 2.6 |
| 17:09 | 3 | 20.6 | 57 | 57,776 | 0.03 | 12.24 | 1.86 | 59.36 | 80.17 | 0 | 0 | 1.66 | 1.89 |
| 17:08 | 3 | 20.5 | 57 | 57,785 | 0.03 | 12.61 | 2.22 | 63.82 | 57.14 | 0 | 0 | 1.66 | 1.88 |
| 17:07 | 3 | 20.4 | 56 | 57,797 | 0.45 | 15.79 | 2.42 | 71.07 | 40.34 | 0 | 0 | 1.67 | 1.87 |
| 17:06 | 3 | 20.2 | 56 | 57,815 | 0.16 | 16.95 | 2.3 | 84.33 | 28.58 | 0 | 0 | 1.68 | 1.86 |
| 17:05 | 3 | 20.1 | 56 | 57,838 | 0 | 15.13 | 2.11 | 71.35 | 49.47 | 0 | 0 | 1.69 | 1.84 |